sensor_id;sensor_type;location;lat;lon;timestamp;pressure;altitude;pressure_sealevel;temperature;humidity
72438;BME280;60444;43.534;-5.674;2023-05-14T00:01:51;102507.97;;;15.15;100.00
72438;BME280;60444;43.534;-5.674;2023-05-14T00:04:16;102481.38;;;15.00;100.00
72438;BME280;60444;43.534;-5.674;2023-05-14T00:06:44;102497.34;;;15.09;100.00
72438;BME280;60444;43.534;-5.674;2023-05-14T00:09:10;102484.72;;;15.06;100.00
72438;BME280;60444;43.534;-5.674;2023-05-14T00:11:36;102508.09;;;15.12;100.00
72438;BME280;60444;43.534;-5.674;2023-05-14T00:14:02;102478.44;;;15.04;100.00
72438;BME280;60444;43.534;-5.674;2023-05-14T00:16:27;102441.88;;;14.88;100.00
72438;BME280;60444;43.534;-5.674;2023-05-14T00:18:53;102458.81;;;14.96;100.00
72438;BME280;60444;43.534;-5.674;2023-05-14T00:21:18;102466.63;;;15.04;100.00
72438;BME280;60444;43.534;-5.674;2023-05-14T00:23:44;102474.50;;;15.11;100.00
72438;BME280;60444;43.534;-5.674;2023-05-14T00:26:09;102482.44;;;15.17;100.00
72438;BME280;60444;43.534;-5.674;2023-05-14T00:28:35;102489.47;;;15.23;100.00
72438;BME280;60444;43.534;-5.674;2023-05-14T00:31:01;102462.84;;;15.08;100.00
72438;BME280;60444;43.534;-5.674;2023-05-14T00:33:26;102447.84;;;14.98;100.00
72438;BME280;60444;43.534;-5.674;2023-05-14T00:35:52;102450.41;;;15.01;100.00
72438;BME280;60444;43.534;-5.674;2023-05-14T00:38:17;102494.94;;;15.23;100.00
72438;BME280;60444;43.534;-5.674;2023-05-14T00:40:44;102453.16;;;15.01;100.00
72438;BME280;60444;43.534;-5.674;2023-05-14T00:43:16;102457.38;;;15.08;100.00
72438;BME280;60444;43.534;-5.674;2023-05-14T00:45:42;102485.78;;;15.24;100.00
72438;BME280;60444;43.534;-5.674;2023-05-14T00:48:07;102401.50;;;14.76;100.00
72438;BME280;60444;43.534;-5.674;2023-05-14T00:50:33;102436.72;;;15.02;100.00
72438;BME280;60444;43.534;-5.674;2023-05-14T00:52:59;102475.63;;;15.27;100.00
72438;BME280;60444;43.534;-5.674;2023-05-14T00:55:25;102476.53;;;15.28;100.00
72438;BME280;60444;43.534;-5.674;2023-05-14T00:57:53;102450.88;;;15.12;100.00
72438;BME280;60444;43.534;-5.674;2023-05-14T01:00:20;102460.41;;;15.22;100.00
72438;BME280;60444;43.534;-5.674;2023-05-14T01:02:48;102461.22;;;15.25;100.00
72438;BME280;60444;43.534;-5.674;2023-05-14T01:05:13;102438.25;;;15.09;100.00
72438;BME280;60444;43.534;-5.674;2023-05-14T01:08:02;102456.91;;;15.20;100.00
72438;BME280;60444;43.534;-5.674;2023-05-14T01:10:37;102453.28;;;15.19;100.00
72438;BME280;60444;43.534;-5.674;2023-05-14T01:13:18;102443.59;;;15.12;100.00
72438;BME280;60444;43.534;-5.674;2023-05-14T01:15:47;102433.81;;;15.07;100.00
72438;BME280;60444;43.534;-5.674;2023-05-14T01:18:17;102437.44;;;15.07;100.00
72438;BME280;60444;43.534;-5.674;2023-05-14T01:20:44;102427.69;;;15.02;100.00
72438;BME280;60444;43.534;-5.674;2023-05-14T01:23:10;102446.38;;;15.11;100.00
72438;BME280;60444;43.534;-5.674;2023-05-14T01:25:35;102412.66;;;14.92;100.00
72438;BME280;60444;43.534;-5.674;2023-05-14T01:28:12;102438.22;;;15.11;100.00
72438;BME280;60444;43.534;-5.674;2023-05-14T01:30:52;102435.47;;;15.11;100.00
72438;BME280;60444;43.534;-5.674;2023-05-14T01:33:24;102399.22;;;14.87;100.00
72438;BME280;60444;43.534;-5.674;2023-05-14T01:35:51;102442.69;;;15.12;100.00
72438;BME280;60444;43.534;-5.674;2023-05-14T01:38:19;102404.22;;;14.98;100.00
72438;BME280;60444;43.534;-5.674;2023-05-14T01:40:46;102381.38;;;14.80;100.00
72438;BME280;60444;43.534;-5.674;2023-05-14T01:43:13;102345.63;;;14.66;100.00
72438;BME280;60444;43.534;-5.674;2023-05-14T01:45:40;102429.19;;;15.09;100.00
72438;BME280;60444;43.534;-5.674;2023-05-14T01:48:06;102383.19;;;14.80;100.00
72438;BME280;60444;43.534;-5.674;2023-05-14T01:50:31;102402.34;;;15.00;100.00
72438;BME280;60444;43.534;-5.674;2023-05-14T01:52:57;102395.16;;;14.97;100.00
72438;BME280;60444;43.534;-5.674;2023-05-14T01:55:23;102420.13;;;15.08;100.00
72438;BME280;60444;43.534;-5.674;2023-05-14T01:57:52;102412.03;;;15.07;100.00
72438;BME280;60444;43.534;-5.674;2023-05-14T02:00:19;102420.88;;;15.12;100.00
72438;BME280;60444;43.534;-5.674;2023-05-14T02:02:45;102398.72;;;14.99;100.00
72438;BME280;60444;43.534;-5.674;2023-05-14T02:05:11;102416.41;;;15.11;100.00
72438;BME280;60444;43.534;-5.674;2023-05-14T02:07:39;102377.63;;;14.83;100.00
72438;BME280;60444;43.534;-5.674;2023-05-14T02:10:05;102414.53;;;15.11;100.00
72438;BME280;60444;43.534;-5.674;2023-05-14T02:12:31;102403.94;;;15.04;100.00
72438;BME280;60444;43.534;-5.674;2023-05-14T02:14:57;102385.25;;;14.95;100.00
72438;BME280;60444;43.534;-5.674;2023-05-14T02:17:24;102369.13;;;14.90;100.00
72438;BME280;60444;43.534;-5.674;2023-05-14T02:19:50;102362.91;;;14.87;100.00
72438;BME280;60444;43.534;-5.674;2023-05-14T02:22:15;102409.97;;;15.12;100.00
72438;BME280;60444;43.534;-5.674;2023-05-14T02:24:41;102409.91;;;15.13;100.00
72438;BME280;60444;43.534;-5.674;2023-05-14T02:27:07;102397.56;;;15.05;100.00
72438;BME280;60444;43.534;-5.674;2023-05-14T02:29:32;102374.72;;;14.87;100.00
72438;BME280;60444;43.534;-5.674;2023-05-14T02:31:58;102387.94;;;14.96;100.00
72438;BME280;60444;43.534;-5.674;2023-05-14T02:34:23;102409.16;;;15.10;100.00
72438;BME280;60444;43.534;-5.674;2023-05-14T02:36:49;102354.06;;;14.82;100.00
72438;BME280;60444;43.534;-5.674;2023-05-14T02:39:15;102414.53;;;15.11;100.00
72438;BME280;60444;43.534;-5.674;2023-05-14T02:41:40;102323.34;;;14.57;100.00
72438;BME280;60444;43.534;-5.674;2023-05-14T02:44:06;102381.75;;;14.93;100.00
72438;BME280;60444;43.534;-5.674;2023-05-14T02:46:31;102388.06;;;14.93;100.00
72438;BME280;60444;43.534;-5.674;2023-05-14T02:48:57;102367.78;;;14.79;100.00
72438;BME280;60444;43.534;-5.674;2023-05-14T02:51:23;102406.81;;;15.01;100.00
72438;BME280;60444;43.534;-5.674;2023-05-14T02:53:48;102382.88;;;14.87;100.00
72438;BME280;60444;43.534;-5.674;2023-05-14T02:56:14;102327.91;;;14.56;100.00
72438;BME280;60444;43.534;-5.674;2023-05-14T02:58:40;102403.34;;;14.97;100.00
72438;BME280;60444;43.534;-5.674;2023-05-14T03:01:05;102430.44;;;15.00;100.00
72438;BME280;60444;43.534;-5.674;2023-05-14T03:03:31;102394.03;;;14.81;100.00
72438;BME280;60444;43.534;-5.674;2023-05-14T03:05:56;102395.63;;;14.87;100.00
72438;BME280;60444;43.534;-5.674;2023-05-14T03:08:22;102342.59;;;14.52;100.00
72438;BME280;60444;43.534;-5.674;2023-05-14T03:10:47;102419.63;;;14.99;100.00
72438;BME280;60444;43.534;-5.674;2023-05-14T03:13:13;102383.34;;;14.77;100.00
72438;BME280;60444;43.534;-5.674;2023-05-14T03:15:42;102423.31;;;14.98;100.00
72438;BME280;60444;43.534;-5.674;2023-05-14T03:18:08;102378.13;;;14.71;100.00
72438;BME280;60444;43.534;-5.674;2023-05-14T03:20:34;102360.28;;;14.64;100.00
72438;BME280;60444;43.534;-5.674;2023-05-14T03:22:59;102404.53;;;14.90;100.00
72438;BME280;60444;43.534;-5.674;2023-05-14T03:25:25;102421.41;;;15.00;100.00
72438;BME280;60444;43.534;-5.674;2023-05-14T03:27:50;102418.69;;;15.00;100.00
72438;BME280;60444;43.534;-5.674;2023-05-14T03:30:16;102380.63;;;14.77;100.00
72438;BME280;60444;43.534;-5.674;2023-05-14T03:32:42;102422.41;;;14.97;100.00
72438;BME280;60444;43.534;-5.674;2023-05-14T03:35:08;102416.88;;;14.99;100.00
72438;BME280;60444;43.534;-5.674;2023-05-14T03:37:33;102414.31;;;14.96;100.00
72438;BME280;60444;43.534;-5.674;2023-05-14T03:39:59;102378.00;;;14.74;100.00
72438;BME280;60444;43.534;-5.674;2023-05-14T03:42:24;102425.06;;;14.99;100.00
72438;BME280;60444;43.534;-5.674;2023-05-14T03:44:50;102425.00;;;15.00;100.00
72438;BME280;60444;43.534;-5.674;2023-05-14T03:47:15;102373.50;;;14.73;100.00
72438;BME280;60444;43.534;-5.674;2023-05-14T03:49:41;102422.25;;;15.02;100.00
72438;BME280;60444;43.534;-5.674;2023-05-14T03:52:07;102431.34;;;15.01;100.00
72438;BME280;60444;43.534;-5.674;2023-05-14T03:54:32;102371.03;;;14.67;100.00
72438;BME280;60444;43.534;-5.674;2023-05-14T03:56:58;102402.78;;;14.89;100.00
72438;BME280;60444;43.534;-5.674;2023-05-14T03:59:23;102398.47;;;14.84;100.00
72438;BME280;60444;43.534;-5.674;2023-05-14T04:01:49;102402.13;;;14.83;100.00
72438;BME280;60444;43.534;-5.674;2023-05-14T04:04:14;102381.63;;;14.74;100.00
72438;BME280;60444;43.534;-5.674;2023-05-14T04:06:40;102416.06;;;14.97;100.00
72438;BME280;60444;43.534;-5.674;2023-05-14T04:09:05;102399.47;;;14.81;100.00
72438;BME280;60444;43.534;-5.674;2023-05-14T04:11:31;102415.44;;;14.90;100.00
72438;BME280;60444;43.534;-5.674;2023-05-14T04:13:56;102403.91;;;14.84;100.00
72438;BME280;60444;43.534;-5.674;2023-05-14T04:16:22;102412.84;;;14.87;100.00
72438;BME280;60444;43.534;-5.674;2023-05-14T04:18:47;102424.25;;;14.97;100.00
72438;BME280;60444;43.534;-5.674;2023-05-14T04:21:13;102429.75;;;14.95;100.00
72438;BME280;60444;43.534;-5.674;2023-05-14T04:23:39;102435.22;;;14.95;100.00
72438;BME280;60444;43.534;-5.674;2023-05-14T04:26:04;102394.22;;;14.77;100.00
72438;BME280;60444;43.534;-5.674;2023-05-14T04:28:30;102423.53;;;14.92;100.00
72438;BME280;60444;43.534;-5.674;2023-05-14T04:30:56;102398.97;;;14.72;100.00
72438;BME280;60444;43.534;-5.674;2023-05-14T04:33:21;102406.75;;;14.81;100.00
72438;BME280;60444;43.534;-5.674;2023-05-14T04:35:47;102411.28;;;14.82;100.00
72438;BME280;60444;43.534;-5.674;2023-05-14T04:38:12;102428.88;;;14.95;100.00
72438;BME280;60444;43.534;-5.674;2023-05-14T04:40:38;102372.16;;;14.61;100.00
72438;BME280;60444;43.534;-5.674;2023-05-14T04:43:05;102397.97;;;14.74;100.00
72438;BME280;60444;43.534;-5.674;2023-05-14T04:45:32;102414.69;;;14.87;100.00
72438;BME280;60444;43.534;-5.674;2023-05-14T04:47:57;102397.81;;;14.77;100.00
72438;BME280;60444;43.534;-5.674;2023-05-14T04:50:23;102437.94;;;14.95;100.00
72438;BME280;60444;43.534;-5.674;2023-05-14T04:52:48;102433.31;;;14.97;100.00
72438;BME280;60444;43.534;-5.674;2023-05-14T04:55:14;102435.97;;;14.99;100.00
72438;BME280;60444;43.534;-5.674;2023-05-14T04:57:39;102398.56;;;14.81;100.00
72438;BME280;60444;43.534;-5.674;2023-05-14T05:00:05;102442.25;;;15.01;100.00
72438;BME280;60444;43.534;-5.674;2023-05-14T05:02:32;102425.22;;;14.96;100.00
72438;BME280;60444;43.534;-5.674;2023-05-14T05:04:58;102440.34;;;15.03;100.00
72438;BME280;60444;43.534;-5.674;2023-05-14T05:07:24;102437.63;;;15.03;100.00
72438;BME280;60444;43.534;-5.674;2023-05-14T05:09:50;102429.81;;;14.94;100.00
72438;BME280;60444;43.534;-5.674;2023-05-14T05:12:15;102426.22;;;14.93;100.00
72438;BME280;60444;43.534;-5.674;2023-05-14T05:14:40;102420.00;;;14.90;100.00
72438;BME280;60444;43.534;-5.674;2023-05-14T05:17:06;102456.63;;;15.04;100.00
72438;BME280;60444;43.534;-5.674;2023-05-14T05:19:32;102428.25;;;14.88;100.00
72438;BME280;60444;43.534;-5.674;2023-05-14T05:21:57;102413.84;;;14.85;100.00
72438;BME280;60444;43.534;-5.674;2023-05-14T05:24:23;102428.00;;;14.94;100.00
72438;BME280;60444;43.534;-5.674;2023-05-14T05:26:48;102426.22;;;14.93;100.00
72438;BME280;60444;43.534;-5.674;2023-05-14T05:29:16;102435.13;;;14.97;100.00
72438;BME280;60444;43.534;-5.674;2023-05-14T05:31:41;102447.56;;;15.04;100.00
72438;BME280;60444;43.534;-5.674;2023-05-14T05:34:07;102460.94;;;15.10;100.00
72438;BME280;60444;43.534;-5.674;2023-05-14T05:36:33;102455.63;;;15.07;100.00
72438;BME280;60444;43.534;-5.674;2023-05-14T05:38:58;102451.25;;;15.03;100.00
72438;BME280;60444;43.534;-5.674;2023-05-14T05:41:24;102418.38;;;14.86;100.00
72438;BME280;60444;43.534;-5.674;2023-05-14T05:43:50;102454.72;;;15.06;100.00
72438;BME280;60444;43.534;-5.674;2023-05-14T05:46:16;102478.00;;;15.15;100.00
72438;BME280;60444;43.534;-5.674;2023-05-14T05:48:41;102465.25;;;15.15;100.00
72438;BME280;60444;43.534;-5.674;2023-05-14T05:51:07;102437.75;;;15.00;100.00
72438;BME280;60444;43.534;-5.674;2023-05-14T05:53:32;102455.41;;;15.11;100.00
72438;BME280;60444;43.534;-5.674;2023-05-14T05:55:58;102443.06;;;15.03;100.00
72438;BME280;60444;43.534;-5.674;2023-05-14T05:58:23;102444.97;;;15.01;100.00
72438;BME280;60444;43.534;-5.674;2023-05-14T06:00:49;102466.25;;;15.13;100.00
72438;BME280;60444;43.534;-5.674;2023-05-14T06:03:15;102472.53;;;15.15;100.00
72438;BME280;60444;43.534;-5.674;2023-05-14T06:05:41;102393.50;;;14.72;100.00
72438;BME280;60444;43.534;-5.674;2023-05-14T06:08:06;102451.50;;;14.97;100.00
72438;BME280;60444;43.534;-5.674;2023-05-14T06:10:32;102482.75;;;15.10;100.00
72438;BME280;60444;43.534;-5.674;2023-05-14T06:12:58;102489.16;;;15.09;100.00
72438;BME280;60444;43.534;-5.674;2023-05-14T06:15:24;102495.53;;;15.08;100.00
72438;BME280;60444;43.534;-5.674;2023-05-14T06:17:49;102447.63;;;14.81;100.00
72438;BME280;60444;43.534;-5.674;2023-05-14T06:20:15;102460.88;;;14.90;100.00
72438;BME280;60444;43.534;-5.674;2023-05-14T06:22:40;102455.63;;;14.85;100.00
72438;BME280;60444;43.534;-5.674;2023-05-14T06:25:06;102469.88;;;14.92;100.00
72438;BME280;60444;43.534;-5.674;2023-05-14T06:27:32;102504.41;;;15.13;100.00
72438;BME280;60444;43.534;-5.674;2023-05-14T06:29:58;102442.06;;;14.84;100.00
72438;BME280;60444;43.534;-5.674;2023-05-14T06:32:23;102471.31;;;15.00;100.00
72438;BME280;60444;43.534;-5.674;2023-05-14T06:34:49;102465.00;;;15.00;100.00
72438;BME280;60444;43.534;-5.674;2023-05-14T06:37:14;102449.72;;;14.96;100.00
72438;BME280;60444;43.534;-5.674;2023-05-14T06:39:40;102447.75;;;14.99;100.00
72438;BME280;60444;43.534;-5.674;2023-05-14T06:42:10;102496.53;;;15.28;100.00
72438;BME280;60444;43.534;-5.674;2023-05-14T06:44:36;102450.19;;;15.07;100.00
72438;BME280;60444;43.534;-5.674;2023-05-14T06:47:01;102475.63;;;15.27;100.00
72438;BME280;60444;43.534;-5.674;2023-05-14T06:49:27;102452.31;;;15.20;100.00
72438;BME280;60444;43.534;-5.674;2023-05-14T06:51:52;102494.94;;;15.44;100.00
72438;BME280;60444;43.534;-5.674;2023-05-14T06:54:18;102459.34;;;15.26;100.00
72438;BME280;60444;43.534;-5.674;2023-05-14T06:56:45;102493.88;;;15.48;100.00
72438;BME280;60444;43.534;-5.674;2023-05-14T06:59:10;102468.69;;;15.42;100.00
72438;BME280;60444;43.534;-5.674;2023-05-14T07:01:36;102473.13;;;15.44;100.00
72438;BME280;60444;43.534;-5.674;2023-05-14T07:04:02;102497.72;;;15.65;100.00
72438;BME280;60444;43.534;-5.674;2023-05-14T07:06:27;102460.19;;;15.49;100.00
72438;BME280;60444;43.534;-5.674;2023-05-14T07:08:53;102493.16;;;15.65;100.00
72438;BME280;60444;43.534;-5.674;2023-05-14T07:11:18;102494.44;;;15.77;100.00
72438;BME280;60444;43.534;-5.674;2023-05-14T07:13:44;102484.69;;;15.71;100.00
72438;BME280;60444;43.534;-5.674;2023-05-14T07:16:10;102480.97;;;15.74;100.00
72438;BME280;60444;43.534;-5.674;2023-05-14T07:18:35;102476.41;;;15.74;100.00
72438;BME280;60444;43.534;-5.674;2023-05-14T07:21:01;102477.06;;;15.79;100.00
72438;BME280;60444;43.534;-5.674;2023-05-14T07:23:26;102472.63;;;15.77;100.00
72438;BME280;60444;43.534;-5.674;2023-05-14T07:25:52;102462.88;;;15.71;100.00
72438;BME280;60444;43.534;-5.674;2023-05-14T07:28:17;102467.25;;;15.75;100.00
72438;BME280;60444;43.534;-5.674;2023-05-14T07:30:43;102495.63;;;15.91;100.00
72438;BME280;60444;43.534;-5.674;2023-05-14T07:33:08;102498.28;;;15.93;100.00
72438;BME280;60444;43.534;-5.674;2023-05-14T07:35:34;102486.91;;;15.83;100.00
72438;BME280;60444;43.534;-5.674;2023-05-14T07:38:00;102486.63;;;15.89;100.00
72438;BME280;60444;43.534;-5.674;2023-05-14T07:40:25;102503.66;;;15.94;100.00
72438;BME280;60444;43.534;-5.674;2023-05-14T07:42:51;102495.78;;;15.88;100.00
72438;BME280;60444;43.534;-5.674;2023-05-14T07:45:17;102511.06;;;15.92;100.00
72438;BME280;60444;43.534;-5.674;2023-05-14T07:47:42;102488.84;;;15.80;100.00
72438;BME280;60444;43.534;-5.674;2023-05-14T07:50:08;102513.84;;;15.91;100.00
72438;BME280;60444;43.534;-5.674;2023-05-14T07:52:34;102509.59;;;15.84;100.00
72438;BME280;60444;43.534;-5.674;2023-05-14T07:55:01;102503.69;;;15.74;100.00
72438;BME280;60444;43.534;-5.674;2023-05-14T07:57:27;102492.94;;;15.70;100.00
72438;BME280;60444;43.534;-5.674;2023-05-14T07:59:53;102505.59;;;15.72;100.00
72438;BME280;60444;43.534;-5.674;2023-05-14T08:02:18;102520.50;;;15.84;100.00
72438;BME280;60444;43.534;-5.674;2023-05-14T08:04:44;102535.81;;;15.88;100.00
72438;BME280;60444;43.534;-5.674;2023-05-14T08:07:10;102532.19;;;15.87;100.00
72438;BME280;60444;43.534;-5.674;2023-05-14T08:09:35;102530.28;;;15.89;100.00
72438;BME280;60444;43.534;-5.674;2023-05-14T08:12:01;102539.44;;;15.88;100.00
72438;BME280;60444;43.534;-5.674;2023-05-14T08:14:27;102493.19;;;15.64;100.00
72438;BME280;60444;43.534;-5.674;2023-05-14T08:16:53;102530.16;;;15.92;100.00
72438;BME280;60444;43.534;-5.674;2023-05-14T08:19:18;102496.44;;;15.73;100.00
72438;BME280;60444;43.534;-5.674;2023-05-14T08:21:44;102531.94;;;15.93;100.00
72438;BME280;60444;43.534;-5.674;2023-05-14T08:24:09;102483.88;;;15.69;100.00
72438;BME280;60444;43.534;-5.674;2023-05-14T08:26:35;102537.13;;;15.99;100.00
72438;BME280;60444;43.534;-5.674;2023-05-14T08:29:01;102499.75;;;15.80;100.00
72438;BME280;60444;43.534;-5.674;2023-05-14T08:31:27;102499.31;;;15.90;100.00
72438;BME280;60444;43.534;-5.674;2023-05-14T08:33:52;102514.31;;;16.00;100.00
72438;BME280;60444;43.534;-5.674;2023-05-14T08:36:18;102546.94;;;16.23;100.00
72438;BME280;60444;43.534;-5.674;2023-05-14T08:38:43;102513.75;;;16.12;100.00
72438;BME280;60444;43.534;-5.674;2023-05-14T08:41:10;102540.94;;;16.35;100.00
72438;BME280;60444;43.534;-5.674;2023-05-14T08:43:44;102521.13;;;16.30;100.00
72438;BME280;60444;43.534;-5.674;2023-05-14T08:46:16;102542.28;;;16.45;100.00
72438;BME280;60444;43.534;-5.674;2023-05-14T08:48:46;102516.50;;;16.32;100.00
72438;BME280;60444;43.534;-5.674;2023-05-14T08:51:12;102520.44;;;16.45;100.00
72438;BME280;60444;43.534;-5.674;2023-05-14T08:53:37;102535.34;;;16.58;100.00
72438;BME280;60444;43.534;-5.674;2023-05-14T08:56:05;102532.47;;;16.62;100.00
72438;BME280;60444;43.534;-5.674;2023-05-14T08:58:32;102525.28;;;16.59;100.00
72438;BME280;60444;43.534;-5.674;2023-05-14T09:00:58;102517.31;;;16.54;100.00
72438;BME280;60444;43.534;-5.674;2023-05-14T09:03:24;102525.81;;;16.67;100.00
72438;BME280;60444;43.534;-5.674;2023-05-14T09:05:50;102526.06;;;16.63;100.00
72438;BME280;60444;43.534;-5.674;2023-05-14T09:08:16;102529.47;;;16.68;100.00
72438;BME280;60444;43.534;-5.674;2023-05-14T09:10:42;102493.13;;;16.45;100.00
72438;BME280;60444;43.534;-5.674;2023-05-14T09:13:08;102516.50;;;16.52;100.00
72438;BME280;60444;43.534;-5.674;2023-05-14T09:15:36;102536.84;;;16.66;100.00
72438;BME280;60444;43.534;-5.674;2023-05-14T09:18:05;102534.09;;;16.66;100.00
72438;BME280;60444;43.534;-5.674;2023-05-14T09:20:31;102489.09;;;16.34;100.00
72438;BME280;60444;43.534;-5.674;2023-05-14T09:22:57;102476.69;;;16.27;100.00
72438;BME280;60444;43.534;-5.674;2023-05-14T09:25:30;102537.94;;;16.62;100.00
72438;BME280;60444;43.534;-5.674;2023-05-14T09:27:56;102523.75;;;16.53;100.00
72438;BME280;60444;43.534;-5.674;2023-05-14T09:30:23;102530.81;;;16.57;100.00
72438;BME280;60444;43.534;-5.674;2023-05-14T09:32:48;102517.31;;;16.54;100.00
72438;BME280;60444;43.534;-5.674;2023-05-14T09:35:23;102520.72;;;16.59;100.00
72438;BME280;60444;43.534;-5.674;2023-05-14T09:37:53;102538.16;;;16.76;100.00
72438;BME280;60444;43.534;-5.674;2023-05-14T09:40:21;102498.34;;;16.51;100.00
72438;BME280;60444;43.534;-5.674;2023-05-14T09:42:48;102497.09;;;16.58;100.00
72438;BME280;60444;43.534;-5.674;2023-05-14T09:45:14;102550.53;;;16.84;100.00
72438;BME280;60444;43.534;-5.674;2023-05-14T09:47:40;102513.56;;;16.76;100.00
72438;BME280;60444;43.534;-5.674;2023-05-14T09:50:07;102517.00;;;16.81;100.00
72438;BME280;60444;43.534;-5.674;2023-05-14T09:52:33;102528.34;;;16.90;100.00
72438;BME280;60444;43.534;-5.674;2023-05-14T09:54:59;102540.75;;;16.97;100.00
72438;BME280;60444;43.534;-5.674;2023-05-14T09:57:25;102546.69;;;17.07;100.00
72438;BME280;60444;43.534;-5.674;2023-05-14T09:59:51;102528.66;;;17.03;100.00
72438;BME280;60444;43.534;-5.674;2023-05-14T10:02:26;102527.00;;;16.99;100.00
72438;BME280;60444;43.534;-5.674;2023-05-14T10:04:56;102545.50;;;17.12;100.00
72438;BME280;60444;43.534;-5.674;2023-05-14T10:07:32;102516.06;;;16.99;100.00
72438;BME280;60444;43.534;-5.674;2023-05-14T10:10:02;102534.66;;;17.11;100.00
72438;BME280;60444;43.534;-5.674;2023-05-14T10:12:32;102518.38;;;17.08;100.00
72438;BME280;60444;43.534;-5.674;2023-05-14T10:15:07;102544.09;;;17.22;100.00
72438;BME280;60444;43.534;-5.674;2023-05-14T10:17:36;102492.59;;;16.95;100.00
72438;BME280;60444;43.534;-5.674;2023-05-14T10:20:04;102558.50;;;17.26;100.00
72438;BME280;60444;43.534;-5.674;2023-05-14T10:22:33;102514.16;;;17.01;100.00
72438;BME280;60444;43.534;-5.674;2023-05-14T10:25:01;102541.06;;;17.10;100.00
72438;BME280;60444;43.534;-5.674;2023-05-14T10:27:27;102562.38;;;17.22;100.00
72438;BME280;60444;43.534;-5.674;2023-05-14T10:29:54;102526.72;;;17.05;100.00
72438;BME280;60444;43.534;-5.674;2023-05-14T10:32:21;102567.31;;;17.14;100.00
72438;BME280;60444;43.534;-5.674;2023-05-14T10:34:48;102569.22;;;17.12;100.00
72438;BME280;60444;43.534;-5.674;2023-05-14T10:37:24;102567.75;;;17.05;100.00
72438;BME280;60444;43.534;-5.674;2023-05-14T10:44:55;102553.56;;;16.97;100.00
72438;BME280;60444;43.534;-5.674;2023-05-14T10:47:24;102565.28;;;16.99;100.00
72438;BME280;60444;43.534;-5.674;2023-05-14T10:49:53;102574.47;;;16.98;100.00
72438;BME280;60444;43.534;-5.674;2023-05-14T10:52:20;102535.22;;;16.80;100.00
72438;BME280;60444;43.534;-5.674;2023-05-14T10:54:51;102573.50;;;16.99;100.00
72438;BME280;60444;43.534;-5.674;2023-05-14T10:57:19;102551.94;;;16.93;100.00
72438;BME280;60444;43.534;-5.674;2023-05-14T10:59:46;102563.81;;;16.92;100.00
72438;BME280;60444;43.534;-5.674;2023-05-14T11:02:19;102529.03;;;16.77;100.00
72438;BME280;60444;43.534;-5.674;2023-05-14T11:05:07;102570.28;;;17.09;100.00
72438;BME280;60444;43.534;-5.674;2023-05-14T11:07:37;102527.34;;;16.93;100.00
72438;BME280;60444;43.534;-5.674;2023-05-14T11:10:05;102553.47;;;17.17;100.00
72438;BME280;60444;43.534;-5.674;2023-05-14T11:12:32;102551.34;;;17.23;100.00
72438;BME280;60444;43.534;-5.674;2023-05-14T11:15:00;102538.56;;;17.24;100.00
72438;BME280;60444;43.534;-5.674;2023-05-14T11:17:27;102565.88;;;17.42;100.00
72438;BME280;60444;43.534;-5.674;2023-05-14T11:19:54;102557.50;;;17.47;100.00
72438;BME280;60444;43.534;-5.674;2023-05-14T11:22:21;102521.75;;;17.31;100.00
72438;BME280;60444;43.534;-5.674;2023-05-14T11:24:50;102561.06;;;17.66;100.00
72438;BME280;60444;43.534;-5.674;2023-05-14T11:27:20;102553.84;;;17.65;100.00
72438;BME280;60444;43.534;-5.674;2023-05-14T11:29:47;102529.34;;;17.62;100.00
72438;BME280;60444;43.534;-5.674;2023-05-14T11:32:14;102536.69;;;17.79;100.00
72438;BME280;60444;43.534;-5.674;2023-05-14T11:34:41;102544.69;;;17.83;100.00
72438;BME280;60444;43.534;-5.674;2023-05-14T11:37:07;102561.28;;;17.97;100.00
72438;BME280;60444;43.534;-5.674;2023-05-14T11:39:34;102551.94;;;18.01;100.00
72438;BME280;60444;43.534;-5.674;2023-05-14T11:42:11;102563.53;;;18.06;100.00
72438;BME280;60444;43.534;-5.674;2023-05-14T11:44:39;102544.59;;;18.02;100.00
72438;BME280;60444;43.534;-5.674;2023-05-14T11:47:05;102556.69;;;18.15;100.00
72438;BME280;60444;43.534;-5.674;2023-05-14T11:49:34;102518.44;;;17.96;100.00
72438;BME280;60444;43.534;-5.674;2023-05-14T11:52:05;102549.91;;;18.22;100.00
72438;BME280;60444;43.534;-5.674;2023-05-14T11:54:32;102537.69;;;18.12;100.00
72438;BME280;60444;43.534;-5.674;2023-05-14T11:57:01;102545.09;;;18.27;100.00
72438;BME280;60444;43.534;-5.674;2023-05-14T11:59:28;102523.91;;;18.13;100.00
72438;BME280;60444;43.534;-5.674;2023-05-14T12:01:55;102544.03;;;18.29;100.00
72438;BME280;60444;43.534;-5.674;2023-05-14T12:04:21;102540.47;;;18.27;100.00
72438;BME280;60444;43.534;-5.674;2023-05-14T12:06:48;102529.22;;;18.33;100.00
72438;BME280;60444;43.534;-5.674;2023-05-14T12:09:18;102490.03;;;18.14;100.00
72438;BME280;60444;43.534;-5.674;2023-05-14T12:11:45;102536.97;;;18.42;100.00
72438;BME280;60444;43.534;-5.674;2023-05-14T12:14:21;102527.91;;;18.40;100.00
72438;BME280;60444;43.534;-5.674;2023-05-14T12:16:48;102496.81;;;18.24;100.00
72438;BME280;60444;43.534;-5.674;2023-05-14T12:19:15;102530.44;;;18.45;100.00
72438;BME280;60444;43.534;-5.674;2023-05-14T12:21:47;102535.97;;;18.43;100.00
72438;BME280;60444;43.534;-5.674;2023-05-14T12:24:17;102535.16;;;18.41;100.00
72438;BME280;60444;43.534;-5.674;2023-05-14T12:26:48;102498.56;;;18.25;100.00
72438;BME280;60444;43.534;-5.674;2023-05-14T12:29:15;102516.31;;;18.35;100.00
72438;BME280;60444;43.534;-5.674;2023-05-14T12:31:49;102516.44;;;18.32;100.00
72438;BME280;60444;43.534;-5.674;2023-05-14T12:34:15;102521.53;;;18.40;100.00